Time;durP1;ratioP1;P1;durP2;ratioP2;P2;SDS_P1;SDS_P2;PMS_P1;PMS_P2;Temp;Humidity;BMP_temperature;BMP_pressure;BME280_temperature;BME280_humidity;BME280_pressure;Samples;Min_cycle;Max_cycle;Signal;HPM_P1;HPM_P2
2023/09/11 00:00:42;;;;;;;7.47;4.93;;;;;;;26.43;55.63;101289.63;5053615;28;20109;-64
2023/09/11 00:03:10;;;;;;;7.05;4.82;;;;;;;26.46;55.46;101300.81;5064120;27;20060;-63
2023/09/11 00:05:38;;;;;;;10.88;5.25;;;;;;;26.45;55.77;101299.19;5053416;28;20060;-63
2023/09/11 00:08:13;;;;;;;6.75;4.97;;;;;;;26.43;55.66;101300.63;5055179;28;20088;-63
2023/09/11 00:10:41;;;;;;;7.88;5.68;;;;;;;26.43;55.57;101306.97;5052422;27;20116;-63
2023/09/11 00:13:09;;;;;;;6.75;5.32;;;;;;;26.40;55.53;101290.25;5054589;27;20111;-64
2023/09/11 00:15:37;;;;;;;8.50;5.30;;;;;;;26.40;55.57;101293.00;5049197;28;20052;-64
2023/09/11 00:18:05;;;;;;;8.00;5.22;;;;;;;26.38;55.34;101293.31;5056576;27;20048;-63
2023/09/11 00:20:33;;;;;;;10.85;5.45;;;;;;;26.38;55.34;101296.09;5054873;27;20291;-64
2023/09/11 00:23:01;;;;;;;6.95;4.68;;;;;;;26.37;55.38;101293.63;5052959;27;20080;-64
2023/09/11 00:25:30;;;;;;;6.80;5.18;;;;;;;26.28;55.63;101274.28;5054821;27;20068;-64
2023/09/11 00:27:58;;;;;;;7.15;5.05;;;;;;;26.35;55.55;101284.88;5051692;28;20045;-63
2023/09/11 00:30:25;;;;;;;7.95;5.28;;;;;;;26.34;55.61;101281.31;5061172;27;20043;-63
2023/09/11 00:32:53;;;;;;;8.65;5.22;;;;;;;26.33;55.66;101284.38;5053903;28;20049;-63
2023/09/11 00:35:21;;;;;;;8.93;5.30;;;;;;;26.30;55.70;101290.50;5055960;27;20049;-64
2023/09/11 00:37:49;;;;;;;7.05;5.10;;;;;;;26.31;55.59;101286.59;5052774;27;20097;-63
2023/09/11 00:40:17;;;;;;;8.90;5.03;;;;;;;26.28;55.63;101280.59;5051467;27;20452;-64
2023/09/11 00:42:46;;;;;;;6.32;4.68;;;;;;;26.27;55.68;101278.97;5056395;27;20060;-64
2023/09/11 00:45:14;;;;;;;9.20;5.38;;;;;;;26.26;55.37;101279.28;5049463;28;20074;-63
2023/09/11 00:47:45;;;;;;;7.07;5.28;;;;;;;26.25;55.78;101272.16;5051551;27;20064;-64
2023/09/11 00:50:16;;;;;;;11.05;5.32;;;;;;;26.21;55.67;101271.97;5053436;27;20136;-64
2023/09/11 00:52:45;;;;;;;6.68;4.90;;;;;;;26.21;55.68;101282.19;5054549;28;20076;-63
2023/09/11 00:55:13;;;;;;;6.50;4.90;;;;;;;26.20;55.87;101280.56;5050809;28;20060;-64
2023/09/11 00:57:42;;;;;;;9.32;5.35;;;;;;;26.18;55.64;101274.56;5053792;27;20100;-63
2023/09/11 01:00:13;;;;;;;9.43;5.20;;;;;;;26.16;55.65;101274.06;5053654;28;20061;-63
2023/09/11 01:02:41;;;;;;;6.97;5.03;;;;;;;26.16;55.61;101276.81;5054619;28;20112;-64
2023/09/11 01:05:10;;;;;;;6.50;4.95;;;;;;;26.13;55.72;101278.25;5056459;28;20068;-64
2023/09/11 01:07:38;;;;;;;6.72;5.40;;;;;;;26.13;55.49;101269.19;5052614;27;20053;-63
2023/09/11 01:10:06;;;;;;;7.40;5.45;;;;;;;26.10;55.81;101272.56;5052676;27;20074;-63
2023/09/11 01:12:37;;;;;;;5.50;4.80;;;;;;;26.08;55.80;101270.13;5056553;28;20053;-64
2023/09/11 01:15:06;;;;;;;8.00;5.25;;;;;;;26.07;55.63;101271.25;5050656;28;20090;-64
2023/09/11 01:17:43;;;;;;;7.50;5.15;;;;;;;26.05;55.65;101272.69;5057885;27;20143;-63
2023/09/11 01:20:53;;;;;;;8.95;5.18;;;;;;;26.04;55.88;101273.81;5057685;27;20149;-63
2023/09/11 01:23:47;;;;;;;9.23;4.90;;;;;;;26.02;55.71;101271.38;5052845;28;20053;-63
2023/09/11 01:26:52;;;;;;;10.10;5.20;;;;;;;26.00;55.97;101278.38;5055673;27;20104;-63
2023/09/11 01:29:24;;;;;;;9.35;5.53;;;;;;;25.98;55.99;101273.19;5055453;27;20084;-63
2023/09/11 01:31:54;;;;;;;9.50;5.50;;;;;;;25.94;56.00;101269.44;5058705;28;20299;-63
2023/09/11 01:34:22;;;;;;;8.43;5.63;;;;;;;25.93;55.66;101271.38;5058188;28;20124;-63
2023/09/11 01:36:50;;;;;;;10.35;5.05;;;;;;;25.90;56.08;101268.44;5053609;27;20092;-63
2023/09/11 01:39:18;;;;;;;7.70;4.90;;;;;;;25.88;56.05;101266.00;5062653;27;20056;-63
2023/09/11 01:41:47;;;;;;;8.52;5.90;;;;;;;25.86;55.96;101261.91;5056443;28;20093;-63
2023/09/11 01:44:21;;;;;;;10.85;5.28;;;;;;;25.85;55.81;101263.88;5058043;27;20486;-63
2023/09/11 01:46:52;;;;;;;8.13;5.30;;;;;;;25.84;56.00;101264.19;5056475;28;20128;-63
2023/09/11 01:49:21;;;;;;;8.18;5.25;;;;;;;25.81;56.03;101260.13;5053095;27;20069;-63
2023/09/11 01:51:53;;;;;;;8.80;5.30;;;;;;;25.80;56.13;101254.91;5055202;28;20057;-63
2023/09/11 01:54:22;;;;;;;6.20;4.60;;;;;;;25.79;56.04;101256.03;5057336;28;20049;-63
2023/09/11 01:56:50;;;;;;;7.32;4.95;;;;;;;25.75;55.90;101258.63;5058912;28;20101;-63
2023/09/11 01:59:18;;;;;;;8.05;5.43;;;;;;;25.74;55.97;101257.00;5057128;28;20082;-63
2023/09/11 02:01:45;;;;;;;8.40;5.70;;;;;;;25.73;56.18;101254.53;5051177;27;20041;-64
2023/09/11 02:04:15;;;;;;;9.57;6.00;;;;;;;25.71;56.23;101257.63;5052286;28;20045;-64
2023/09/11 02:06:42;;;;;;;6.57;4.95;;;;;;;25.57;55.94;101232.88;5053859;28;20079;-64
2023/09/11 02:09:10;;;;;;;6.80;5.40;;;;;;;25.67;56.21;101247.53;5067833;27;20055;-64
2023/09/11 02:11:38;;;;;;;8.60;5.55;;;;;;;25.66;56.16;101252.22;5059927;27;20053;-64
2023/09/11 02:14:06;;;;;;;8.57;5.30;;;;;;;25.60;56.09;101240.50;5076255;27;20064;-64
2023/09/11 02:16:34;;;;;;;9.02;5.80;;;;;;;25.62;55.80;101259.47;5055901;28;20189;-64
2023/09/11 02:19:02;;;;;;;8.25;4.78;;;;;;;25.59;55.96;101249.88;5064428;27;20102;-64
2023/09/11 02:21:31;;;;;;;11.00;6.03;;;;;;;25.58;56.22;101241.94;5054824;28;20145;-64
2023/09/11 02:23:58;;;;;;;10.75;5.47;;;;;;;25.57;56.04;101243.06;5054382;27;20061;-64
2023/09/11 02:26:26;;;;;;;6.18;4.88;;;;;;;25.53;56.23;101242.88;5057045;28;20435;-64
2023/09/11 02:28:55;;;;;;;6.75;5.32;;;;;;;25.53;56.12;101242.88;5055669;27;20360;-64
2023/09/11 02:31:23;;;;;;;8.75;5.30;;;;;;;25.50;56.22;101231.69;5055773;27;20040;-63
2023/09/11 02:33:50;;;;;;;8.80;5.47;;;;;;;25.50;56.25;101232.50;5055097;28;20041;-64
2023/09/11 02:36:19;;;;;;;11.95;5.43;;;;;;;25.49;55.99;101238.31;5055311;27;20044;-64
2023/09/11 02:38:48;;;;;;;7.65;5.38;;;;;;;25.46;56.05;101238.94;5067366;27;20045;-64
2023/09/11 02:41:16;;;;;;;7.65;5.18;;;;;;;25.35;56.22;101215.53;5059116;28;20041;-64
2023/09/11 02:43:43;;;;;;;7.53;5.57;;;;;;;25.46;56.11;101233.44;5057271;28;20067;-64
2023/09/11 02:46:11;;;;;;;7.10;5.53;;;;;;;25.44;56.11;101236.50;5047856;27;20084;-64
2023/09/11 02:48:45;;;;;;;9.48;5.22;;;;;;;25.43;56.17;101232.13;5055217;28;20115;-64
2023/09/11 02:51:13;;;;;;;10.77;5.35;;;;;;;25.42;56.11;101233.25;5050238;27;20101;-65
2023/09/11 02:53:41;;;;;;;10.25;5.57;;;;;;;25.36;56.12;101229.00;5056340;27;20073;-64
2023/09/11 02:56:10;;;;;;;8.02;5.13;;;;;;;25.40;56.15;101234.69;5053862;27;20070;-64
2023/09/11 02:58:38;;;;;;;9.63;5.53;;;;;;;25.38;56.10;101237.75;5053480;28;20061;-64
2023/09/11 03:01:06;;;;;;;8.05;5.22;;;;;;;25.37;56.12;101238.06;5049441;27;20106;-64
2023/09/11 03:03:34;;;;;;;9.00;6.13;;;;;;;25.34;56.19;101225.75;5053035;28;20049;-64
2023/09/11 03:06:03;;;;;;;8.20;6.07;;;;;;;25.34;56.24;101233.19;5055525;28;20049;-64
2023/09/11 03:08:31;;;;;;;8.02;5.50;;;;;;;25.32;56.10;101227.19;5053361;28;20144;-64
2023/09/11 03:11:05;;;;;;;9.75;6.07;;;;;;;25.19;56.23;101213.16;5053204;27;20168;-64
2023/09/11 03:13:34;;;;;;;9.55;5.32;;;;;;;25.29;56.21;101228.59;5054143;27;20053;-64
2023/09/11 03:16:09;;;;;;;8.05;5.43;;;;;;;25.23;56.19;101216.09;5049176;27;20053;-64
2023/09/11 03:18:37;;;;;;;7.65;5.20;;;;;;;25.26;56.17;101212.72;5053458;27;20048;-64
2023/09/11 03:21:07;;;;;;;8.00;5.38;;;;;;;25.22;56.31;101209.78;5055909;27;20523;-64
2023/09/11 03:23:35;;;;;;;10.93;5.65;;;;;;;25.22;56.30;101214.47;5051154;28;20056;-64
2023/09/11 03:26:03;;;;;;;9.15;5.55;;;;;;;25.20;56.34;101205.72;5058217;27;20056;-64
2023/09/11 03:28:32;;;;;;;8.48;5.45;;;;;;;25.19;56.00;101204.09;5055576;28;20074;-64
2023/09/11 03:31:03;;;;;;;9.50;5.28;;;;;;;25.18;56.23;101207.97;5054504;28;20049;-64
2023/09/11 03:33:31;;;;;;;9.30;5.72;;;;;;;25.15;56.42;101206.66;5054196;28;20065;-64
2023/09/11 03:35:59;;;;;;;7.50;5.22;;;;;;;25.15;56.34;101203.09;5056109;28;20045;-64
2023/09/11 03:38:27;;;;;;;9.02;5.35;;;;;;;25.12;56.42;101206.47;5062326;27;20045;-64
2023/09/11 03:40:55;;;;;;;9.05;5.03;;;;;;;25.10;56.37;101203.22;5055486;27;20548;-64
2023/09/11 03:43:23;;;;;;;8.32;5.60;;;;;;;25.08;56.39;101199.94;5054801;27;20438;-64
2023/09/11 03:45:51;;;;;;;8.10;5.30;;;;;;;25.06;56.53;101196.69;5054817;27;20070;-64
2023/09/11 03:48:20;;;;;;;8.57;5.18;;;;;;;25.03;56.40;101195.38;5056772;27;20084;-64
2023/09/11 03:50:48;;;;;;;7.70;5.03;;;;;;;25.00;56.56;101201.50;5053336;27;20076;-64
2023/09/11 03:53:16;;;;;;;10.55;5.90;;;;;;;24.99;56.52;101197.13;5057551;27;20049;-64
2023/09/11 03:55:44;;;;;;;7.22;5.20;;;;;;;24.95;56.47;101185.91;5055036;28;20077;-64
2023/09/11 03:58:12;;;;;;;8.02;5.55;;;;;;;24.94;56.43;101180.72;5056077;27;20053;-64
2023/09/11 04:00:40;;;;;;;11.13;5.63;;;;;;;24.92;56.44;101186.53;5054457;28;20056;-64
2023/09/11 04:03:08;;;;;;;11.02;6.80;;;;;;;24.91;56.50;101175.84;5053054;27;20067;-64
2023/09/11 04:05:38;;;;;;;7.28;5.60;;;;;;;24.88;56.64;101177.25;5052763;28;20049;-64
2023/09/11 04:08:06;;;;;;;6.97;5.40;;;;;;;24.85;56.46;101166.88;5055137;27;20058;-64
2023/09/11 04:10:34;;;;;;;8.00;5.72;;;;;;;24.84;56.54;101179.00;5051143;28;20060;-64
2023/09/11 04:13:02;;;;;;;13.18;5.93;;;;;;;24.82;56.53;101175.75;5048009;28;20059;-64
2023/09/11 04:15:29;;;;;;;7.72;5.63;;;;;;;24.81;56.36;101173.31;5053038;27;20463;-64
2023/09/11 04:17:57;;;;;;;7.32;5.20;;;;;;;24.78;56.35;101172.00;5048142;27;20059;-64
2023/09/11 04:20:26;;;;;;;8.60;4.93;;;;;;;24.75;56.64;101174.56;5061508;27;20114;-63
2023/09/11 04:22:55;;;;;;;8.48;5.45;;;;;;;24.73;56.73;101177.59;5056162;27;20098;-63
2023/09/11 04:25:23;;;;;;;7.40;5.30;;;;;;;24.61;56.66;101142.41;5054230;27;20061;-64
2023/09/11 04:27:51;;;;;;;10.73;5.15;;;;;;;24.69;56.74;101165.59;5054236;28;20101;-64
2023/09/11 04:30:18;;;;;;;6.80;5.22;;;;;;;24.67;56.78;101154.91;5048209;27;20071;-63
2023/09/11 04:32:47;;;;;;;7.25;5.35;;;;;;;24.66;56.57;101158.78;5047718;27;20049;-63
2023/09/11 04:35:15;;;;;;;9.25;5.60;;;;;;;24.62;56.58;101157.78;5054402;28;20041;-63
2023/09/11 04:37:43;;;;;;;6.75;4.88;;;;;;;24.62;56.78;101157.78;5052553;27;20045;-63
2023/09/11 04:40:13;;;;;;;8.23;5.50;;;;;;;24.60;56.69;101157.28;5051445;28;20485;-64
2023/09/11 04:42:42;;;;;;;7.10;5.85;;;;;;;24.58;56.84;101158.69;5055607;27;20044;-64
2023/09/11 04:45:10;;;;;;;7.97;5.38;;;;;;;24.56;56.55;101156.25;5047980;27;20046;-64
2023/09/11 04:47:38;;;;;;;6.93;5.60;;;;;;;24.54;56.88;101158.50;5053241;28;20044;-64
2023/09/11 04:50:07;;;;;;;9.63;5.38;;;;;;;24.53;56.71;101156.06;5055888;28;20186;-64
2023/09/11 04:52:35;;;;;;;9.48;6.35;;;;;;;24.51;56.66;101153.63;5060597;27;20239;-64
2023/09/11 04:55:03;;;;;;;8.25;5.60;;;;;;;24.52;56.56;101168.19;5057571;28;20045;-64
2023/09/11 04:57:32;;;;;;;8.27;5.50;;;;;;;24.50;56.49;101160.25;5073783;27;20053;-63
2023/09/11 05:00:00;;;;;;;9.52;5.32;;;;;;;24.48;56.39;101158.91;5057314;28;20049;-64
2023/09/11 05:02:28;;;;;;;9.98;5.45;;;;;;;24.48;56.50;101167.97;5057352;27;20109;-63
2023/09/11 05:04:56;;;;;;;7.25;5.05;;;;;;;24.48;56.44;101169.91;5057417;28;20057;-64
2023/09/11 05:07:24;;;;;;;11.38;5.25;;;;;;;24.46;56.34;101164.72;5056984;28;20070;-63
2023/09/11 05:09:51;;;;;;;9.52;5.32;;;;;;;24.47;56.65;101169.09;5054114;27;20046;-66
2023/09/11 05:12:19;;;;;;;7.68;5.82;;;;;;;24.42;56.73;101174.69;5058608;27;20072;-64
2023/09/11 05:14:49;;;;;;;6.18;5.20;;;;;;;24.43;56.55;101181.00;5054310;28;20133;-64
2023/09/11 05:17:18;;;;;;;11.52;5.60;;;;;;;24.43;56.50;101181.81;5063330;27;20085;-65
2023/09/11 05:19:45;;;;;;;8.93;5.53;;;;;;;24.41;56.42;101173.06;5056424;27;20048;-64
2023/09/11 05:22:13;;;;;;;9.85;6.00;;;;;;;24.40;56.56;101176.94;5052956;28;20136;-63
2023/09/11 05:24:41;;;;;;;11.13;6.45;;;;;;;24.39;56.54;101180.00;5054305;27;20061;-65
2023/09/11 05:27:09;;;;;;;9.00;5.10;;;;;;;24.37;56.51;101180.31;5059279;28;20041;-64
2023/09/11 05:29:37;;;;;;;13.63;5.28;;;;;;;24.36;56.48;101177.84;5057987;28;20089;-66
2023/09/11 05:32:06;;;;;;;7.43;5.30;;;;;;;24.34;56.66;101187.22;5061037;27;20059;-62
2023/09/11 05:34:34;;;;;;;9.57;5.88;;;;;;;24.33;56.45;101184.78;5071414;27;20062;-65
2023/09/11 05:37:02;;;;;;;10.30;5.50;;;;;;;24.32;56.52;101185.91;5055845;28;20045;-63
2023/09/11 05:39:31;;;;;;;7.65;5.40;;;;;;;24.30;56.84;101179.91;5055130;27;20095;-63
2023/09/11 05:41:59;;;;;;;7.43;5.50;;;;;;;24.28;56.87;101179.38;5055519;27;20041;-64
2023/09/11 05:44:27;;;;;;;7.43;5.65;;;;;;;24.27;56.47;101175.00;5052907;27;20053;-64
2023/09/11 05:46:55;;;;;;;7.90;5.32;;;;;;;24.26;56.69;101185.22;4704778;27;10000021;-63
2023/09/11 05:49:25;;;;;;;8.18;6.10;;;;;;;24.26;56.66;101187.97;5051851;28;20134;-68
2023/09/11 05:51:53;;;;;;;7.72;5.15;;;;;;;24.24;56.82;101197.59;5049086;28;20339;-63
2023/09/11 05:54:21;;;;;;;6.50;4.70;;;;;;;24.21;56.76;101190.78;5053677;27;20045;-64
2023/09/11 05:56:48;;;;;;;11.60;5.45;;;;;;;24.21;56.54;101203.69;5053419;28;20037;-63
2023/09/11 05:59:18;;;;;;;10.70;5.60;;;;;;;24.17;56.92;101200.75;5052322;28;20077;-64
2023/09/11 06:01:47;;;;;;;9.02;5.80;;;;;;;24.12;56.83;101203.59;5054711;27;20382;-64
2023/09/11 06:04:14;;;;;;;8.25;5.47;;;;;;;24.14;56.73;101204.09;5055937;28;20041;-64
2023/09/11 06:06:44;;;;;;;10.75;6.18;;;;;;;24.13;57.13;101201.66;5056975;28;20041;-65
2023/09/11 06:09:12;;;;;;;9.18;5.18;;;;;;;24.12;56.89;101205.53;5049956;27;20049;-62
2023/09/11 06:11:40;;;;;;;9.23;5.15;;;;;;;24.11;57.12;101203.91;5052579;28;20434;-64
2023/09/11 06:14:08;;;;;;;9.48;5.53;;;;;;;24.09;56.74;101209.69;5047883;27;20058;-62
2023/09/11 06:16:35;;;;;;;11.73;5.85;;;;;;;24.08;56.93;101210.00;5059147;28;20359;-62
2023/09/11 06:19:03;;;;;;;11.20;5.60;;;;;;;24.06;56.98;101209.50;5048107;28;20054;-62
2023/09/11 06:21:31;;;;;;;9.07;5.40;;;;;;;24.05;56.70;101211.41;5061914;28;20060;-65
2023/09/11 06:24:01;;;;;;;10.85;5.65;;;;;;;24.04;56.60;101212.53;5055262;27;20117;-62
2023/09/11 06:26:28;;;;;;;8.77;5.43;;;;;;;23.98;56.72;101209.06;5049061;28;20073;-63
2023/09/11 06:28:56;;;;;;;15.15;5.55;;;;;;;23.90;56.74;101195.22;5063035;27;20078;-62
2023/09/11 06:31:24;;;;;;;10.90;5.40;;;;;;;24.01;56.90;101224.94;5058627;27;20049;-62
2023/09/11 06:33:52;;;;;;;7.95;5.22;;;;;;;24.00;56.86;101214.25;5059211;28;20045;-63
2023/09/11 06:36:20;;;;;;;15.88;5.30;;;;;;;23.98;56.92;101222.81;5095999;27;20076;-63
2023/09/11 06:38:48;;;;;;;10.35;5.07;;;;;;;23.98;57.00;101213.75;5107293;27;20480;-63
2023/09/11 06:41:17;;;;;;;7.72;5.68;;;;;;;23.97;57.03;101206.63;5063286;27;20122;-63
2023/09/11 06:43:46;;;;;;;7.43;4.90;;;;;;;23.96;56.73;101219.53;5061154;28;20052;-62
2023/09/11 06:46:13;;;;;;;10.05;5.68;;;;;;;23.95;56.84;101215.16;5059431;27;20061;-63
2023/09/11 06:48:41;;;;;;;10.48;5.43;;;;;;;23.94;56.67;101208.03;5059638;28;20079;-62
2023/09/11 06:51:09;;;;;;;7.88;4.82;;;;;;;23.94;56.92;101212.72;5057409;27;20053;-63
2023/09/11 06:53:37;;;;;;;11.77;5.32;;;;;;;23.94;56.79;101215.47;5058335;27;20049;-63
2023/09/11 06:56:07;;;;;;;9.77;5.07;;;;;;;23.92;56.78;101217.69;5061157;28;20094;-62
2023/09/11 06:58:38;;;;;;;7.68;5.45;;;;;;;23.92;57.08;101212.22;5058975;28;20055;-63
2023/09/11 07:01:08;;;;;;;8.98;4.78;;;;;;;23.90;56.75;101215.25;5048582;28;20057;-63
2023/09/11 07:03:36;;;;;;;10.65;5.20;;;;;;;23.90;56.68;101218.00;5058812;28;20049;-62
2023/09/11 07:06:04;;;;;;;7.45;5.07;;;;;;;23.79;56.84;101196.53;5058048;27;20057;-62
2023/09/11 07:08:32;;;;;;;8.82;5.40;;;;;;;23.92;56.88;101214.97;5049032;27;20060;-63
2023/09/11 07:11:00;;;;;;;8.18;5.25;;;;;;;23.91;56.97;101213.31;5060304;28;20126;-62
2023/09/11 07:13:28;;;;;;;6.97;5.07;;;;;;;23.91;56.63;101211.41;5059410;28;20076;-63
2023/09/11 07:15:59;;;;;;;8.35;4.72;;;;;;;23.92;56.66;101202.03;5060098;27;20052;-63
2023/09/11 07:18:27;;;;;;;10.45;5.20;;;;;;;23.92;57.02;101202.03;5048326;27;20383;-63
2023/09/11 07:20:56;;;;;;;6.63;4.32;;;;;;;23.94;56.70;101205.31;5057332;28;20086;-63
2023/09/11 07:23:27;;;;;;;9.23;5.07;;;;;;;23.90;56.77;101184.25;5060593;27;20070;-63
2023/09/11 07:25:56;;;;;;;7.40;5.00;;;;;;;23.96;56.52;101205.00;5060837;28;20114;-63
2023/09/11 07:28:26;;;;;;;9.88;4.80;;;;;;;23.95;56.68;101198.69;5059758;27;20033;-62
2023/09/11 07:30:54;;;;;;;11.85;5.60;;;;;;;23.96;56.65;101211.31;5059271;27;20812;-64
2023/09/11 07:33:24;;;;;;;14.60;5.13;;;;;;;23.95;56.85;101212.41;5048746;28;20354;-63
2023/09/11 07:35:52;;;;;;;9.35;5.10;;;;;;;23.96;56.95;101210.50;5081845;27;20045;-63
2023/09/11 07:38:19;;;;;;;9.02;5.32;;;;;;;23.95;56.78;101217.91;5059130;27;20120;-63
2023/09/11 07:40:47;;;;;;;7.60;4.60;;;;;;;23.96;56.85;101218.72;5043890;28;20130;-62
2023/09/11 07:43:15;;;;;;;8.38;5.13;;;;;;;23.94;57.11;101205.31;5058894;27;20049;-63
2023/09/11 07:45:43;;;;;;;7.90;5.03;;;;;;;23.78;56.99;101187.47;5056707;28;20045;-62
2023/09/11 07:48:11;;;;;;;9.63;5.00;;;;;;;23.95;57.31;101215.16;5058436;28;20415;-62
2023/09/11 07:50:40;;;;;;;10.52;5.88;;;;;;;23.96;57.31;101215.97;5049495;28;20067;-63
2023/09/11 07:53:08;;;;;;;8.68;5.50;;;;;;;23.96;57.30;101224.22;5052238;27;20041;-62
2023/09/11 07:55:37;;;;;;;8.57;4.90;;;;;;;23.94;57.17;101223.72;5050705;28;20045;-63
2023/09/11 07:58:05;;;;;;;8.23;4.93;;;;;;;23.96;57.24;101218.72;5055246;27;20118;-63
2023/09/11 08:00:33;;;;;;;10.68;5.30;;;;;;;23.96;57.33;101224.22;5055172;27;20060;-63
2023/09/11 08:03:00;;;;;;;14.07;5.68;;;;;;;23.94;57.63;101223.72;5056838;28;20057;-63
2023/09/11 08:05:29;;;;;;;10.32;5.80;;;;;;;23.90;57.40;101230.91;5047614;28;20106;-63
2023/09/11 08:08:01;;;;;;;12.05;5.57;;;;;;;23.92;57.41;101236.91;5048199;27;20052;-63
2023/09/11 08:10:29;;;;;;;9.98;5.97;;;;;;;23.94;57.63;101241.00;5046368;27;20072;-63
2023/09/11 08:12:57;;;;;;;10.98;5.45;;;;;;;23.94;57.69;101237.44;5059642;28;20045;-63
2023/09/11 08:15:25;;;;;;;14.57;5.60;;;;;;;23.95;57.71;101244.56;5053102;28;20057;-63
2023/09/11 08:17:53;;;;;;;14.18;5.85;;;;;;;23.94;57.90;101251.16;5052661;27;20478;-63
2023/09/11 08:20:20;;;;;;;10.30;6.05;;;;;;;23.95;57.63;101247.31;5051814;28;20068;-63
2023/09/11 08:22:48;;;;;;;8.20;5.35;;;;;;;23.94;57.48;101240.19;5052903;27;20064;-63
2023/09/11 08:25:18;;;;;;;11.80;6.45;;;;;;;23.94;57.77;101243.75;5052469;28;20049;-63
2023/09/11 08:27:46;;;;;;;8.85;6.32;;;;;;;23.93;57.84;101241.28;5058598;27;20051;-63
2023/09/11 08:30:13;;;;;;;10.38;5.90;;;;;;;23.95;57.79;101237.13;5056611;28;20049;-63
2023/09/11 08:32:41;;;;;;;10.20;5.97;;;;;;;23.96;57.88;101235.19;5050629;28;20052;-63
2023/09/11 08:35:09;;;;;;;12.18;6.75;;;;;;;23.94;57.69;101237.44;5060818;27;20045;-63
2023/09/11 08:37:37;;;;;;;11.10;5.80;;;;;;;23.96;57.93;101249.75;5058290;27;20037;-63
2023/09/11 08:40:06;;;;;;;9.43;6.72;;;;;;;23.96;57.73;101244.25;5057568;28;20069;-62
2023/09/11 08:42:35;;;;;;;12.10;5.82;;;;;;;23.98;58.13;101246.69;5062030;27;20044;-63
2023/09/11 08:45:04;;;;;;;13.98;6.63;;;;;;;23.92;58.06;101231.44;5053130;28;20048;-63
2023/09/11 08:47:34;;;;;;;11.40;6.28;;;;;;;23.98;58.20;101244.75;5052999;27;20098;-63
2023/09/11 08:50:06;;;;;;;9.63;6.15;;;;;;;23.98;58.29;101236.53;5052021;28;20110;-63
2023/09/11 08:52:35;;;;;;;9.95;6.65;;;;;;;24.00;58.31;101241.72;5057078;27;20053;-63
2023/09/11 08:55:09;;;;;;;10.05;6.03;;;;;;;24.01;58.17;101238.66;5061201;28;20117;-63
2023/09/11 08:57:40;;;;;;;9.73;6.57;;;;;;;24.02;58.36;101247.72;5062531;28;20048;-63
2023/09/11 09:00:12;;;;;;;10.77;6.30;;;;;;;24.03;58.06;101249.34;5055593;27;20079;-63
2023/09/11 09:02:41;;;;;;;11.60;6.07;;;;;;;24.00;58.57;101239.78;5056284;28;21521;-63
2023/09/11 09:05:09;;;;;;;9.18;6.38;;;;;;;24.04;58.54;101242.75;5057895;27;20048;-63
2023/09/11 09:07:39;;;;;;;10.57;6.53;;;;;;;24.06;58.28;101239.69;5053809;27;20053;-63
2023/09/11 09:10:08;;;;;;;9.82;6.57;;;;;;;24.07;58.78;101239.38;5058323;28;20049;-63
2023/09/11 09:12:37;;;;;;;13.73;7.43;;;;;;;24.09;58.74;101237.16;5060131;27;20090;-63
2023/09/11 09:15:07;;;;;;;10.07;5.68;;;;;;;24.10;58.93;101247.03;5060234;27;20570;-63
2023/09/11 09:17:35;;;;;;;9.93;6.03;;;;;;;24.11;58.69;101251.41;5056612;27;20044;-63
2023/09/11 09:20:04;;;;;;;16.10;6.55;;;;;;;24.12;58.82;101249.47;5057344;28;20053;-63
2023/09/11 09:22:32;;;;;;;13.52;7.03;;;;;;;24.14;58.95;101247.22;5057766;28;20141;-65
2023/09/11 09:24:59;;;;;;;11.30;6.55;;;;;;;24.16;58.88;101253.25;5056683;27;20049;-64
2023/09/11 09:27:28;;;;;;;11.35;6.70;;;;;;;24.12;59.14;101233.00;4706878;27;9999755;-63
2023/09/11 09:29:57;;;;;;;12.63;5.88;;;;;;;24.15;59.26;101237.88;5057651;28;20482;-63
2023/09/11 09:32:26;;;;;;;10.10;5.93;;;;;;;24.21;59.20;101245.72;5056717;27;20096;-63
2023/09/11 09:34:55;;;;;;;13.60;5.95;;;;;;;24.22;59.08;101243.78;5057115;27;20052;-63
2023/09/11 09:37:23;;;;;;;12.02;5.88;;;;;;;24.24;59.01;101241.56;5051423;27;20051;-63
2023/09/11 09:39:51;;;;;;;8.75;5.95;;;;;;;24.22;59.20;101238.28;5070051;27;20052;-63
2023/09/11 09:42:19;;;;;;;9.90;5.28;;;;;;;24.19;59.10;101225.97;5058613;28;20082;-63
2023/09/11 09:44:52;;;;;;;9.27;6.38;;;;;;;24.29;59.33;101245.00;5052073;27;20110;-63
2023/09/11 09:47:23;;;;;;;9.35;5.88;;;;;;;24.32;59.35;101249.09;5051479;28;20131;-63
2023/09/11 09:49:53;;;;;;;11.63;6.40;;;;;;;24.34;59.07;101244.09;5056410;28;20049;-63
2023/09/11 09:52:22;;;;;;;12.02;6.00;;;;;;;24.34;59.02;101239.41;5051271;27;20132;-63
2023/09/11 09:54:52;;;;;;;12.57;6.30;;;;;;;24.38;59.21;101238.81;5055730;28;20053;-63
2023/09/11 09:57:22;;;;;;;8.98;6.35;;;;;;;24.41;59.33;101247.25;5058553;28;20078;-63
2023/09/11 09:59:52;;;;;;;9.20;5.60;;;;;;;24.44;59.34;101237.59;5054677;27;20053;-63
2023/09/11 10:02:27;;;;;;;10.23;6.18;;;;;;;24.45;59.31;101231.78;5056118;27;20448;-63
2023/09/11 10:04:56;;;;;;;7.57;5.22;;;;;;;24.48;59.27;101241.34;5050279;28;20053;-63
2023/09/11 10:07:38;;;;;;;7.82;5.72;;;;;;;24.52;59.59;101234.13;5051078;27;20585;-63
2023/09/11 10:10:20;;;;;;;13.52;6.97;;;;;;;24.56;59.64;101243.38;5050333;27;20087;-64
2023/09/11 10:12:53;;;;;;;15.15;6.35;;;;;;;24.60;59.78;101236.16;5055884;28;20077;-64
2023/09/11 10:15:22;;;;;;;9.95;6.00;;;;;;;24.63;59.42;101232.81;5052376;28;20048;-64
2023/09/11 10:17:55;;;;;;;8.73;5.25;;;;;;;24.67;59.68;101231.88;5058659;27;20056;-64
2023/09/11 10:20:24;;;;;;;11.57;5.53;;;;;;;24.71;59.24;101232.09;5056223;28;20064;-64
2023/09/11 10:22:55;;;;;;;8.57;5.75;;;;;;;24.71;59.07;101234.00;5059997;27;20075;-64
2023/09/11 10:25:24;;;;;;;10.85;5.82;;;;;;;24.73;59.16;101234.53;5056813;28;20334;-64
2023/09/11 10:28:03;;;;;;;13.75;6.25;;;;;;;24.70;59.32;101215.91;5057827;28;20049;-65
2023/09/11 10:30:35;;;;;;;9.02;5.38;;;;;;;24.77;59.32;101224.53;5054118;27;20120;-64
2023/09/11 10:33:09;;;;;;;13.20;6.45;;;;;;;24.82;59.65;101227.19;5045245;28;20101;-64
2023/09/11 10:35:41;;;;;;;12.48;5.22;;;;;;;24.86;59.28;101229.00;5058002;27;20126;-64
2023/09/11 10:38:09;;;;;;;14.43;6.18;;;;;;;24.87;59.26;101216.88;5074652;27;20065;-64
2023/09/11 10:40:39;;;;;;;9.20;6.03;;;;;;;24.91;58.87;101217.06;5052660;27;20107;-64
2023/09/11 10:43:07;;;;;;;10.98;4.97;;;;;;;24.93;58.85;101223.91;5057254;28;20426;-64
2023/09/11 10:45:36;;;;;;;14.45;6.07;;;;;;;24.95;58.93;101218.09;5055013;27;20049;-63
2023/09/11 10:48:06;;;;;;;8.27;5.25;;;;;;;24.97;58.73;101213.94;5056665;28;20132;-64
2023/09/11 10:50:37;;;;;;;9.80;5.63;;;;;;;25.00;58.61;101219.94;5051418;27;20123;-64
2023/09/11 10:53:05;;;;;;;10.65;5.95;;;;;;;25.04;58.60;101218.19;5057294;28;20048;-64
2023/09/11 10:55:33;;;;;;;9.48;5.18;;;;;;;25.08;58.69;101210.97;5049093;27;20053;-64
2023/09/11 10:58:04;;;;;;;7.72;5.50;;;;;;;25.11;58.66;101213.91;5054872;28;20129;-64
2023/09/11 11:00:37;;;;;;;8.95;5.35;;;;;;;25.13;58.60;101211.66;5051818;28;20053;-64
2023/09/11 11:03:07;;;;;;;11.55;5.97;;;;;;;25.15;58.40;101211.34;5049888;27;20144;-64
2023/09/11 11:05:35;;;;;;;9.32;5.57;;;;;;;25.19;58.51;101213.16;5055468;27;20312;-64
2023/09/11 11:08:04;;;;;;;10.23;5.63;;;;;;;25.22;58.36;101212.53;5056020;27;20045;-63
2023/09/11 11:10:33;;;;;;;13.27;5.35;;;;;;;25.25;58.15;101200.09;5052384;27;20079;-61
2023/09/11 11:13:06;;;;;;;7.63;5.03;;;;;;;25.27;58.55;101201.41;5048277;28;20270;-63
2023/09/11 11:15:34;;;;;;;11.98;5.75;;;;;;;25.30;58.03;101211.78;5042544;28;20082;-63
2023/09/11 11:18:08;;;;;;;11.25;5.32;;;;;;;25.32;57.89;101207.91;5052825;27;20052;-64
2023/09/11 11:20:37;;;;;;;11.15;5.05;;;;;;;25.35;57.92;101208.09;5045542;28;20052;-64
2023/09/11 11:23:10;;;;;;;9.45;5.53;;;;;;;25.39;57.81;101209.09;5052318;28;20136;-64
2023/09/11 11:25:41;;;;;;;8.15;4.20;;;;;;;25.43;57.90;101203.78;5052962;27;20057;-63
2023/09/11 11:28:15;;;;;;;7.43;4.75;;;;;;;25.46;57.65;101194.91;5051901;28;20060;-63
2023/09/11 11:30:45;;;;;;;8.68;4.75;;;;;;;25.37;57.19;101183.03;5056133;28;20105;-63